Time;durP1;ratioP1;P1;durP2;ratioP2;P2;SDS_P1;SDS_P2;PMS_P1;PMS_P2;Temp;Humidity;BMP_temperature;BMP_pressure;BME280_temperature;BME280_humidity;BME280_pressure;Samples;Min_cycle;Max_cycle;Signal;HPM_P1;HPM_P2
2021/10/24 00:02:12;;;;;;;28.05;19.83;;;10.40;99.90;;;;;;5089976;28;20616;-72
2021/10/24 00:04:37;;;;;;;31.13;19.40;;;10.40;99.90;;;;;;5070391;28;20198;-71
2021/10/24 00:07:03;;;;;;;34.30;20.15;;;10.40;99.90;;;;;;5071036;28;20225;-73
2021/10/24 00:09:29;;;;;;;30.90;20.17;;;10.40;99.90;;;;;;5087861;28;20192;-73
2021/10/24 00:11:55;;;;;;;31.55;20.60;;;10.40;99.90;;;;;;5103625;27;20261;-73
2021/10/24 00:14:20;;;;;;;35.65;22.20;;;10.40;99.90;;;;;;5088053;28;20189;-71
2021/10/24 00:16:46;;;;;;;32.35;20.73;;;10.40;99.90;;;;;;5089158;28;20206;-72
2021/10/24 00:19:11;;;;;;;35.30;21.30;;;10.40;99.90;;;;;;5090014;28;20699;-74
2021/10/24 00:21:37;;;;;;;33.20;19.38;;;10.40;99.90;;;;;;5090024;28;20190;-74
2021/10/24 00:24:03;;;;;;;30.75;19.30;;;10.40;99.90;;;;;;5070776;28;20189;-74
2021/10/24 00:26:29;;;;;;;;;;;10.30;99.90;;;;;;5085997;28;20380;-73
2021/10/24 00:28:54;;;;;;;;;;;10.30;99.90;;;;;;5096240;28;19912;-74
2021/10/24 00:31:20;;;;;;;;;;;10.30;99.90;;;;;;5090183;28;19916;-72
2021/10/24 00:33:45;;;;;;;;;;;10.30;99.90;;;;;;5089811;28;19918;-72
2021/10/24 00:36:11;;;;;;;;;;;10.20;99.90;;;;;;5070361;28;19912;-72
2021/10/24 00:38:36;;;;;;;;;;;10.20;99.90;;;;;;5089870;28;19994;-72
2021/10/24 00:41:02;;;;;;;;;;;10.20;99.90;;;;;;5087650;28;20372;-72
2021/10/24 00:43:28;;;;;;;;;;;10.20;99.90;;;;;;5105123;28;19908;-72
2021/10/24 00:45:54;;;;;;;;;;;10.20;99.90;;;;;;5089015;28;19931;-73
2021/10/24 00:48:20;;;;;;;;;;;10.20;99.90;;;;;;5070018;28;19916;-73
2021/10/24 00:50:46;;;;;;;;;;;10.20;99.90;;;;;;5088022;28;19915;-72
2021/10/24 00:53:13;;;;;;;;;;;10.20;99.90;;;;;;5088562;28;19912;-73
2021/10/24 00:55:39;;;;;;;;;;;10.10;99.90;;;;;;5070235;28;19916;-72
2021/10/24 00:58:05;;;;;;;;;;;10.10;99.90;;;;;;5082363;28;19911;-73
2021/10/24 01:00:31;;;;;;;;;;;10.10;99.90;;;;;;5090390;28;20273;-73
2021/10/24 01:02:57;;;;;;;;;;;10.20;99.90;;;;;;5089523;28;19904;-72
2021/10/24 01:05:23;;;;;;;;;;;10.10;99.90;;;;;;5103555;28;19947;-72
2021/10/24 01:07:49;;;;;;;;;;;10.20;99.90;;;;;;5071255;28;19994;-72
2021/10/24 01:10:16;;;;;;;;;;;10.20;99.90;;;;;;5104229;28;20434;-74
2021/10/24 01:12:48;;;;;;;;;;;10.10;99.90;;;;;;5088976;28;19974;-73
2021/10/24 01:15:15;;;;;;;;;;;10.10;99.90;;;;;;5102776;28;20112;-73
2021/10/24 01:17:40;;;;;;;;;;;10.10;99.90;;;;;;5105144;28;20025;-71
2021/10/24 01:20:07;;;;;;;;;;;10.20;99.90;;;;;;5102566;28;20496;-73
2021/10/24 01:22:36;;;;;;;;;;;10.10;99.90;;;;;;5089449;28;20117;-73
2021/10/24 01:25:02;;;;;;;;;;;10.10;99.90;;;;;;5071481;28;19915;-74
2021/10/24 01:27:28;;;;;;;;;;;10.10;99.90;;;;;;5105292;28;19912;-72
2021/10/24 01:29:54;;;;;;;;;;;10.10;99.90;;;;;;5068630;28;19912;-72
2021/10/24 01:32:19;;;;;;;;;;;10.10;99.90;;;;;;5094220;28;19919;-72
2021/10/24 01:34:48;;;;;;;;;;;10.10;99.90;;;;;;5068441;28;19937;-73
2021/10/24 01:37:14;;;;;;;;;;;10.10;99.90;;;;;;5105051;28;20296;-73
2021/10/24 01:39:40;;;;;;;;;;;10.10;99.90;;;;;;5093153;28;19916;-73
2021/10/24 01:42:06;;;;;;;;;;;10.10;99.90;;;;;;5071380;28;19939;-74
2021/10/24 01:44:32;;;;;;;;;;;10.10;99.90;;;;;;5070025;28;19909;-73
2021/10/24 01:46:57;;;;;;;;;;;10.10;99.90;;;;;;5072280;28;19996;-73
2021/10/24 01:49:31;;;;;;;30.50;21.92;;;10.00;99.90;;;;;;5076675;28;20448;-73
2021/10/24 01:52:01;;;;;;;25.67;19.42;;;10.40;99.90;;;;;;5118606;27;20186;-72
2021/10/24 01:54:28;;;;;;;27.90;18.98;;;10.30;99.90;;;;;;5073427;28;20184;-74
2021/10/24 01:56:54;;;;;;;29.52;20.23;;;10.20;99.90;;;;;;5084197;28;20210;-73
2021/10/24 01:59:20;;;;;;;29.60;18.95;;;10.10;99.90;;;;;;5093187;28;22664;-73
2021/10/24 02:02:04;;;;;;;30.00;19.90;;;10.10;99.90;;;;;;5086834;28;20192;-72
2021/10/24 02:04:58;;;;;;;28.58;19.25;;;10.00;99.90;;;;;;5091112;28;20201;-71
2021/10/24 02:07:28;;;;;;;31.15;20.02;;;9.90;99.90;;;;;;5073611;28;20653;-73
2021/10/24 02:09:53;;;;;;;31.75;22.60;;;9.90;99.90;;;;;;5090299;28;20504;-73
2021/10/24 02:12:21;;;;;;;28.70;20.23;;;10.30;99.90;;;;;;5078714;28;20217;-73
2021/10/24 02:14:48;;;;;;;27.33;19.58;;;10.20;99.90;;;;;;5073189;28;20212;-72
2021/10/24 02:17:15;;;;;;;28.05;20.13;;;10.00;99.90;;;;;;5073894;28;20202;-73
2021/10/24 02:19:41;;;;;;;29.42;20.10;;;9.90;99.90;;;;;;5074179;28;20330;-73
2021/10/24 02:22:07;;;;;;;30.52;19.90;;;9.90;99.90;;;;;;5073427;28;20170;-72
2021/10/24 02:24:33;;;;;;;30.70;20.13;;;9.80;99.90;;;;;;5074128;28;20546;-72
2021/10/24 02:26:59;;;;;;;31.80;20.80;;;9.70;99.90;;;;;;5073842;28;20184;-73
2021/10/24 02:29:27;;;;;;;33.00;20.90;;;9.70;99.90;;;;;;5074605;28;20265;-73
2021/10/24 02:31:53;;;;;;;32.03;20.42;;;9.60;99.90;;;;;;5077618;28;20696;-72
2021/10/24 02:34:43;;;;;;;32.42;20.95;;;9.60;99.90;;;;;;5058163;28;20198;-74
2021/10/24 02:37:30;;;;;;;29.63;20.60;;;9.50;99.90;;;;;;5073378;28;20192;-74
2021/10/24 02:39:56;;;;;;;29.42;21.17;;;9.40;99.90;;;;;;5073641;28;20199;-73
2021/10/24 02:42:26;;;;;;;36.20;21.73;;;9.40;99.90;;;;;;5075733;28;20178;-73
2021/10/24 02:44:52;;;;;;;33.80;20.38;;;9.40;99.90;;;;;;5079318;28;20191;-73
2021/10/24 02:47:18;;;;;;;32.15;21.42;;;9.30;99.90;;;;;;5065399;28;20560;-72
2021/10/24 02:49:44;;;;;;;32.03;22.08;;;9.30;99.90;;;;;;5105746;28;20204;-71
2021/10/24 02:52:11;;;;;;;33.85;21.65;;;9.30;99.90;;;;;;5072833;28;20252;-72
2021/10/24 02:54:38;;;;;;;31.95;21.98;;;9.30;99.90;;;;;;5070093;28;20606;-73
2021/10/24 02:57:07;;;;;;;36.35;21.17;;;9.20;99.90;;;;;;5072572;28;20266;-74
2021/10/24 02:59:33;;;;;;;36.42;22.25;;;9.20;99.90;;;;;;5071706;28;20178;-74
2021/10/24 03:02:00;;;;;;;35.40;21.35;;;9.10;99.90;;;;;;5091217;28;20189;-73
2021/10/24 03:04:27;;;;;;;34.33;22.33;;;9.10;99.90;;;;;;5071067;28;20173;-72
2021/10/24 03:06:53;;;;;;;34.15;22.65;;;9.00;99.90;;;;;;5089040;28;20182;-74
2021/10/24 03:09:20;;;;;;;40.15;23.73;;;9.00;99.90;;;;;;5072801;28;20544;-73
2021/10/24 03:11:46;;;;;;;32.28;22.13;;;8.90;99.90;;;;;;5105225;27;20321;-71
2021/10/24 03:14:14;;;;;;;35.88;23.15;;;8.90;99.90;;;;;;5072874;28;20231;-73
2021/10/24 03:16:40;;;;;;;35.65;22.77;;;8.90;99.90;;;;;;5072821;28;20735;-74
2021/10/24 03:19:07;;;;;;;41.33;23.90;;;8.80;99.90;;;;;;5072160;28;20186;-74
2021/10/24 03:21:32;;;;;;;37.38;23.52;;;8.80;99.90;;;;;;5074637;28;20231;-73
2021/10/24 03:24:01;;;;;;;38.67;26.98;;;8.70;99.90;;;;;;5055073;28;20894;-74
2021/10/24 03:26:28;;;;;;;40.17;28.52;;;9.20;99.90;;;;;;5103905;28;20451;-74
2021/10/24 03:28:54;;;;;;;37.85;27.65;;;9.50;99.90;;;;;;5075382;28;20400;-73
2021/10/24 03:31:20;;;;;;;35.47;27.02;;;9.60;99.90;;;;;;5088831;28;21172;-73
2021/10/24 03:33:46;;;;;;;34.03;26.17;;;9.70;99.90;;;;;;5098603;28;20932;-72
2021/10/24 03:36:13;;;;;;;39.50;26.55;;;9.70;99.90;;;;;;5071134;28;20844;-74
2021/10/24 03:38:39;;;;;;;35.42;26.02;;;9.80;99.90;;;;;;5107681;27;20493;-72
2021/10/24 03:41:05;;;;;;;34.90;25.80;;;9.80;99.90;;;;;;5064275;28;21527;-74
2021/10/24 03:43:31;;;;;;;33.50;25.52;;;9.80;99.90;;;;;;5078573;28;20401;-73
2021/10/24 03:45:57;;;;;;;36.15;26.10;;;9.80;99.90;;;;;;5068251;28;20921;-72
2021/10/24 03:48:25;;;;;;;34.37;25.53;;;9.90;99.90;;;;;;5069864;28;20405;-73
2021/10/24 03:50:51;;;;;;;36.70;25.60;;;9.90;99.90;;;;;;5070366;28;20429;-73
2021/10/24 03:53:17;;;;;;;32.03;25.17;;;9.80;99.90;;;;;;5093999;28;20442;-72
2021/10/24 03:55:45;;;;;;;34.33;24.73;;;9.80;99.90;;;;;;5062976;28;20433;-73
2021/10/24 03:58:11;;;;;;;33.90;25.10;;;9.80;99.90;;;;;;5087939;28;20402;-73
2021/10/24 04:00:38;;;;;;;33.63;24.80;;;9.80;99.90;;;;;;5068119;28;20427;-74
2021/10/24 04:03:08;;;;;;;35.70;25.30;;;9.70;99.90;;;;;;5088721;28;20408;-73
2021/10/24 04:05:38;;;;;;;32.80;24.05;;;9.70;99.90;;;;;;5072432;28;20925;-71
2021/10/24 04:08:05;;;;;;;32.40;24.43;;;9.70;99.90;;;;;;5068977;28;20458;-73
2021/10/24 04:10:33;;;;;;;31.77;24.43;;;9.70;99.90;;;;;;5069066;28;20405;-72
2021/10/24 04:12:59;;;;;;;31.55;24.33;;;9.70;99.90;;;;;;5082143;28;20418;-72
2021/10/24 04:15:26;;;;;;;35.73;24.90;;;9.60;99.90;;;;;;5073831;28;20728;-72
2021/10/24 04:17:53;;;;;;;34.50;24.42;;;9.50;99.90;;;;;;5071163;28;20413;-73
2021/10/24 04:20:22;;;;;;;29.27;23.38;;;9.60;99.90;;;;;;5059700;28;20400;-72
2021/10/24 04:22:49;;;;;;;31.80;24.70;;;9.60;99.90;;;;;;5070279;28;20398;-72
2021/10/24 04:25:15;;;;;;;28.75;24.00;;;9.50;99.90;;;;;;5064825;28;20408;-73
2021/10/24 04:27:43;;;;;;;32.08;24.30;;;9.50;99.90;;;;;;5070158;28;20390;-72
2021/10/24 04:30:12;;;;;;;29.25;23.20;;;9.50;99.90;;;;;;5078123;28;20405;-73
2021/10/24 04:32:39;;;;;;;31.70;23.02;;;9.40;99.90;;;;;;5080262;28;20393;-72
2021/10/24 04:35:06;;;;;;;32.33;23.55;;;9.40;99.90;;;;;;5086075;28;20906;-73
2021/10/24 04:37:32;;;;;;;29.55;23.95;;;9.40;99.90;;;;;;5103657;28;20978;-73
2021/10/24 04:39:58;;;;;;;32.67;23.63;;;9.40;99.90;;;;;;5087463;28;20489;-73
2021/10/24 04:42:24;;;;;;;32.00;22.85;;;9.30;99.90;;;;;;5074709;28;20413;-73
2021/10/24 04:44:51;;;;;;;30.20;23.53;;;9.30;99.90;;;;;;5067837;28;20930;-72
2021/10/24 04:47:18;;;;;;;29.85;23.13;;;9.30;99.90;;;;;;5068884;28;20499;-73
2021/10/24 04:49:44;;;;;;;29.37;22.73;;;9.20;99.90;;;;;;5073245;28;20516;-71
2021/10/24 04:52:11;;;;;;;31.80;23.40;;;9.20;99.90;;;;;;5090389;28;20385;-73
2021/10/24 04:54:37;;;;;;;29.27;23.45;;;9.20;99.90;;;;;;5078462;28;20398;-71
2021/10/24 04:57:03;;;;;;;30.93;23.50;;;9.20;99.90;;;;;;5070266;28;20559;-72
2021/10/24 04:59:29;;;;;;;32.42;23.25;;;9.20;99.90;;;;;;5068334;28;20409;-73
2021/10/24 05:01:55;;;;;;;31.17;22.80;;;9.20;99.90;;;;;;5105441;27;20756;-74
2021/10/24 05:04:21;;;;;;;27.70;22.33;;;9.20;99.90;;;;;;5087737;28;20394;-74
2021/10/24 05:06:46;;;;;;;28.85;22.20;;;9.10;99.90;;;;;;5087238;28;20613;-73
2021/10/24 05:09:12;;;;;;;34.08;23.48;;;9.10;99.90;;;;;;5069373;28;20420;-74
2021/10/24 05:11:41;;;;;;;29.95;23.02;;;9.10;99.90;;;;;;5076452;28;20412;-74
2021/10/24 05:14:07;;;;;;;31.03;23.23;;;9.10;99.90;;;;;;5087295;28;20408;-73
2021/10/24 05:16:33;;;;;;;30.35;22.35;;;9.10;99.90;;;;;;5085122;28;20778;-71
2021/10/24 05:18:59;;;;;;;30.77;21.98;;;9.10;99.90;;;;;;5068914;28;20423;-73
2021/10/24 05:21:25;;;;;;;30.70;22.73;;;9.00;99.90;;;;;;5077253;28;20400;-74
2021/10/24 05:23:51;;;;;;;30.02;21.95;;;9.00;99.90;;;;;;5075801;28;21060;-73
2021/10/24 05:26:17;;;;;;;26.85;21.70;;;9.00;99.90;;;;;;5071939;28;20460;-73
2021/10/24 05:28:43;;;;;;;29.37;21.43;;;9.00;99.90;;;;;;5072675;28;20991;-74
2021/10/24 05:31:10;;;;;;;27.95;21.25;;;9.00;99.90;;;;;;5076569;28;20407;-74
2021/10/24 05:33:41;;;;;;;28.27;21.67;;;9.00;99.90;;;;;;5087322;28;20432;-73
2021/10/24 05:36:27;;;;;;;30.85;21.38;;;9.00;99.90;;;;;;5075587;28;20417;-74
2021/10/24 05:38:53;;;;;;;28.30;21.58;;;9.00;99.90;;;;;;5072703;28;20403;-73
2021/10/24 05:41:31;;;;;;;28.55;22.00;;;8.90;99.90;;;;;;5089185;28;20475;-73
2021/10/24 05:43:57;;;;;;;27.70;22.17;;;9.00;99.90;;;;;;5068233;28;20916;-74
2021/10/24 05:46:24;;;;;;;29.52;21.60;;;9.00;99.90;;;;;;5068487;28;20528;-72
2021/10/24 05:48:51;;;;;;;32.53;21.80;;;8.90;99.90;;;;;;5069578;28;20494;-75
2021/10/24 05:51:20;;;;;;;28.95;21.70;;;8.90;99.90;;;;;;5098108;28;20483;-72
2021/10/24 05:53:46;;;;;;;27.23;22.17;;;8.90;99.90;;;;;;5069221;28;20402;-74
2021/10/24 05:56:20;;;;;;;31.38;22.65;;;8.90;99.90;;;;;;5081737;28;20769;-74
2021/10/24 05:58:46;;;;;;;30.40;21.83;;;8.90;99.90;;;;;;5071786;28;20402;-73
2021/10/24 06:01:36;;;;;;;29.25;22.20;;;8.90;99.90;;;;;;5070499;28;20405;-73
2021/10/24 06:04:20;;;;;;;29.25;21.85;;;8.90;99.90;;;;;;5085906;28;20409;-72
2021/10/24 06:06:55;;;;;;;30.58;22.40;;;8.90;99.90;;;;;;5069934;28;20419;-74
2021/10/24 06:12:41;;;;;;;29.50;19.83;;;8.80;99.90;;;;;;5030025;28;20233;-74
2021/10/24 06:15:15;;;;;;;28.05;18.80;;;8.40;99.90;;;;;;5047321;28;20242;-74
2021/10/24 06:17:43;;;;;;;28.27;18.80;;;8.10;99.90;;;;;;5057811;28;20194;-75
2021/10/24 06:20:11;;;;;;;31.30;22.87;;;7.90;99.90;;;;;;5071613;28;20485;-74
2021/10/24 06:22:37;;;;;;;28.45;21.70;;;8.20;99.90;;;;;;5068575;28;20423;-73
2021/10/24 06:25:08;;;;;;;27.60;22.48;;;8.40;99.90;;;;;;5077133;28;20416;-74
2021/10/24 06:27:42;;;;;;;27.08;22.00;;;8.50;99.90;;;;;;5053514;28;20835;-75
2021/10/24 06:30:12;;;;;;;28.67;22.20;;;8.50;99.90;;;;;;5070869;28;20504;-74
2021/10/24 06:33:01;;;;;;;28.97;21.47;;;8.60;99.90;;;;;;5083609;28;20463;-75
2021/10/24 06:35:30;;;;;;;27.98;21.65;;;8.60;99.90;;;;;;5087912;28;20426;-74
2021/10/24 06:38:14;;;;;;;29.08;21.73;;;8.60;99.90;;;;;;5088100;28;20413;-75
2021/10/24 06:40:44;;;;;;;27.98;21.60;;;8.60;99.90;;;;;;5098542;28;20445;-74
2021/10/24 06:43:11;;;;;;;28.00;22.10;;;8.60;99.90;;;;;;5089201;28;20751;-73
2021/10/24 06:45:56;;;;;;;25.73;20.90;;;8.60;99.90;;;;;;5087670;28;20491;-75
2021/10/24 06:48:44;;;;;;;27.60;21.05;;;8.60;99.90;;;;;;5059645;28;20428;-75
2021/10/24 06:51:22;;;;;;;27.17;20.33;;;8.70;99.90;;;;;;5073379;28;20415;-75
2021/10/24 06:53:53;;;;;;;26.90;21.02;;;8.70;99.90;;;;;;5072359;28;20414;-74
2021/10/24 06:56:37;;;;;;;29.35;20.55;;;8.70;99.90;;;;;;5095936;28;20421;-75
2021/10/24 06:59:21;;;;;;;27.15;20.33;;;8.70;99.90;;;;;;5097952;28;20397;-75
2021/10/24 07:02:06;;;;;;;25.23;20.35;;;8.60;99.90;;;;;;5091448;28;20405;-74
2021/10/24 07:04:51;;;;;;;28.23;20.77;;;8.70;99.90;;;;;;5094890;28;20401;-75
2021/10/24 07:07:23;;;;;;;26.07;20.30;;;8.70;99.90;;;;;;5069919;28;20459;-74
2021/10/24 07:10:05;;;;;;;26.30;20.73;;;8.70;99.90;;;;;;5070978;28;20960;-75
2021/10/24 07:12:32;;;;;;;26.65;20.20;;;8.70;99.90;;;;;;5071447;28;20989;-73
2021/10/24 07:14:57;;;;;;;27.57;20.70;;;8.80;99.90;;;;;;5074911;28;20506;-73
2021/10/24 07:17:23;;;;;;;26.33;19.95;;;8.80;99.90;;;;;;5055630;28;20809;-73
2021/10/24 07:19:49;;;;;;;26.73;20.00;;;8.80;99.90;;;;;;5076073;28;20419;-72
2021/10/24 07:22:15;;;;;;;25.55;19.70;;;8.80;99.90;;;;;;5087945;28;20408;-72
2021/10/24 07:25:00;;;;;;;25.90;20.10;;;8.80;99.90;;;;;;5085196;28;20488;-72
2021/10/24 07:27:30;;;;;;;24.90;19.55;;;8.80;99.90;;;;;;5074701;28;20763;-72
2021/10/24 07:29:56;;;;;;;27.88;19.65;;;8.90;99.90;;;;;;5053427;28;20410;-72
2021/10/24 07:32:23;;;;;;;24.45;19.38;;;8.90;99.90;;;;;;5054718;28;20400;-74
2021/10/24 07:35:08;;;;;;;23.65;19.25;;;9.00;99.90;;;;;;5086003;28;20463;-73
2021/10/24 07:37:33;;;;;;;27.20;19.48;;;9.00;99.90;;;;;;5074497;28;20828;-75
2021/10/24 07:40:00;;;;;;;25.23;19.00;;;9.00;99.90;;;;;;5071236;28;20409;-74
2021/10/24 07:42:28;;;;;;;23.40;18.77;;;9.10;99.90;;;;;;5072449;28;20410;-74
2021/10/24 07:44:55;;;;;;;22.08;17.65;;;9.20;99.90;;;;;;5086130;28;20392;-75
2021/10/24 07:47:21;;;;;;;22.88;16.15;;;9.20;99.90;;;;;;5068881;28;20406;-75
2021/10/24 07:49:47;;;;;;;17.52;14.77;;;9.40;99.90;;;;;;5072160;28;20402;-74
2021/10/24 07:52:13;;;;;;;18.55;14.20;;;9.60;99.90;;;;;;5081984;28;20181;-72
2021/10/24 07:54:40;;;;;;;18.13;13.15;;;9.50;99.90;;;;;;5071891;28;20182;-73
2021/10/24 07:57:09;;;;;;;19.55;13.20;;;9.90;99.90;;;;;;5071660;28;20722;-74
2021/10/24 07:59:36;;;;;;;18.05;12.73;;;10.40;99.90;;;;;;5067912;28;20913;-73
2021/10/24 08:02:02;;;;;;;19.70;12.13;;;11.70;99.90;;;;;;5093491;28;20399;-75
2021/10/24 08:04:29;;;;;;;16.92;11.80;;;12.70;99.20;;;;;;5061617;28;20392;-68
2021/10/24 08:06:57;;;;;;;16.75;11.30;;;13.50;96.90;;;;;;5104149;28;20485;-73
2021/10/24 08:09:22;;;;;;;14.32;10.45;;;14.30;94.90;;;;;;5075545;28;20521;-74
2021/10/24 08:11:48;;;;;;;15.20;10.27;;;14.80;93.00;;;;;;5069145;28;20933;-70
2021/10/24 08:14:14;;;;;;;14.60;10.13;;;15.40;91.40;;;;;;5071966;28;20190;-75
2021/10/24 08:16:41;;;;;;;12.18;8.95;;;15.20;93.30;;;;;;5069109;28;20205;-73
2021/10/24 08:19:09;;;;;;;15.60;9.23;;;15.20;94.50;;;;;;5057428;28;20205;-71
2021/10/24 08:21:42;;;;;;;14.90;8.57;;;15.50;95.10;;;;;;5067467;28;21474;-73
2021/10/24 08:24:08;;;;;;;12.88;8.40;;;16.10;95.00;;;;;;5066193;28;20254;-73
2021/10/24 08:26:44;;;;;;;;;;;16.80;94.30;;;;;;5070860;28;20096;-73
2021/10/24 08:29:10;;;;;;;;;;;17.40;93.70;;;;;;5069046;28;19908;-74
2021/10/24 08:31:55;;;;;;;;;;;17.80;94.70;;;;;;5109660;27;20049;-74
2021/10/24 08:34:21;;;;;;;;;;;18.50;95.00;;;;;;5069609;28;19999;-75
2021/10/24 08:36:47;;;;;;;;;;;19.00;94.70;;;;;;5103443;27;19915;-75
2021/10/24 08:39:13;;;;;;;;;;;19.60;95.20;;;;;;5070630;28;19915;-72
2021/10/24 08:41:39;;;;;;;;;;;20.00;95.50;;;;;;5112423;27;19908;-73
2021/10/24 08:44:05;;;;;;;;;;;20.50;94.70;;;;;;5070937;28;19984;-73
2021/10/24 08:46:30;;;;;;;;;;;21.00;96.00;;;;;;5104932;27;19995;-73
2021/10/24 08:48:57;;;;;;;;;;;21.40;93.70;;;;;;5070801;28;19915;-73
2021/10/24 08:51:23;;;;;;;;;;;21.60;94.40;;;;;;5103123;28;19912;-72
2021/10/24 08:53:49;;;;;;;;;;;21.90;94.80;;;;;;5089205;28;20401;-72
2021/10/24 08:56:19;;;;;;;;;;;22.10;95.00;;;;;;5088570;28;19916;-71
2021/10/24 08:58:45;;;;;;;;;;;22.30;89.80;;;;;;5103923;28;21532;-73
2021/10/24 09:01:12;;;;;;;;;;;22.60;90.60;;;;;;5070652;28;19915;-74
2021/10/24 09:03:43;;;;;;;;;;;22.70;94.20;;;;;;5104141;28;19955;-74
2021/10/24 09:06:08;;;;;;;;;;;22.90;96.00;;;;;;5087151;28;20365;-73
2021/10/24 09:08:37;;;;;;;;;;;23.10;90.00;;;;;;5097594;28;19999;-72
2021/10/24 09:11:03;;;;;;;;;;;23.20;93.00;;;;;;5068938;28;19908;-73
2021/10/24 09:13:31;;;;;;;;;;;23.40;93.10;;;;;;5088387;28;19965;-74
2021/10/24 09:16:00;;;;;;;;;;;23.50;93.30;;;;;;5091641;28;19920;-74
2021/10/24 09:18:37;;;;;;;12.77;6.22;;;23.80;95.50;;;;;;5087124;28;20711;-74
2021/10/24 09:21:16;;;;;;;8.93;5.90;;;24.50;84.70;;;;;;5068758;28;20452;-74
2021/10/24 09:23:43;;;;;;;10.68;5.93;;;27.00;43.30;;;;;;5086571;28;20452;-75
2021/10/24 09:26:22;;;;;;;8.30;5.50;;;28.00;39.70;;;;;;5052085;28;20486;-74
2021/10/24 09:29:03;;;;;;;9.90;5.60;;;28.60;37.30;;;;;;5069468;28;20437;-73
2021/10/24 09:31:43;;;;;;;8.90;5.63;;;29.00;36.00;;;;;;5084529;28;20427;-72
2021/10/24 09:34:11;;;;;;;8.10;5.47;;;29.30;34.30;;;;;;5086814;28;20406;-71
2021/10/24 09:36:57;;;;;;;7.63;5.65;;;29.10;34.40;;;;;;5067069;28;20421;-71
2021/10/24 09:39:43;;;;;;;9.13;5.57;;;29.20;33.80;;;;;;5096361;28;20405;-72
2021/10/24 09:42:22;;;;;;;10.60;5.20;;;29.30;34.10;;;;;;5087109;28;20424;-74
2021/10/24 09:45:10;;;;;;;8.55;5.47;;;29.30;33.90;;;;;;5086175;28;20468;-73
2021/10/24 09:47:41;;;;;;;8.40;5.30;;;29.60;33.30;;;;;;5067283;28;20500;-73
2021/10/24 09:50:10;;;;;;;8.18;5.50;;;29.70;32.70;;;;;;5084030;28;21991;-73
2021/10/24 09:52:37;;;;;;;9.45;5.15;;;29.80;32.70;;;;;;5067333;28;20433;-74
2021/10/24 09:55:16;;;;;;;8.88;5.00;;;29.90;32.30;;;;;;5066519;28;20409;-72
2021/10/24 09:57:43;;;;;;;8.80;4.80;;;30.00;31.80;;;;;;5086439;28;20441;-73
2021/10/24 10:00:09;;;;;;;7.63;5.13;;;29.90;31.80;;;;;;5084779;28;20441;-74
2021/10/24 10:02:38;;;;;;;8.35;5.10;;;29.80;32.20;;;;;;5090145;28;20389;-73
2021/10/24 10:05:04;;;;;;;10.60;5.30;;;29.80;31.90;;;;;;5069775;28;20414;-74
2021/10/24 10:07:30;;;;;;;7.25;5.20;;;29.80;31.70;;;;;;5104594;28;20418;-74
2021/10/24 10:09:57;;;;;;;8.17;5.20;;;29.90;32.10;;;;;;5095740;28;20504;-73
2021/10/24 10:12:24;;;;;;;7.60;4.80;;;29.90;31.60;;;;;;5091377;28;20422;-74
2021/10/24 10:14:55;;;;;;;8.52;5.00;;;29.80;31.90;;;;;;5070913;28;20434;-74
2021/10/24 10:17:23;;;;;;;9.60;5.60;;;29.80;32.10;;;;;;5089401;28;20993;-74
2021/10/24 10:19:49;;;;;;;9.48;5.00;;;30.00;31.40;;;;;;5087710;28;20418;-74
2021/10/24 10:22:21;;;;;;;8.10;5.07;;;30.00;31.40;;;;;;5083281;28;20411;-74
2021/10/24 10:25:00;;;;;;;7.53;5.30;;;29.90;31.50;;;;;;5087471;28;20906;-73
2021/10/24 10:27:29;;;;;;;7.70;5.50;;;30.00;31.50;;;;;;5099152;28;20414;-74
2021/10/24 10:29:55;;;;;;;8.77;5.30;;;29.80;32.00;;;;;;5096360;28;20486;-73
2021/10/24 10:32:31;;;;;;;8.05;5.35;;;29.10;32.70;;;;;;5090226;28;20417;-73
2021/10/24 10:34:57;;;;;;;8.68;5.60;;;28.50;34.20;;;;;;5099065;28;20467;-75
2021/10/24 10:37:50;;;;;;;9.95;5.72;;;27.70;34.90;;;;;;5075834;28;20412;-72
2021/10/24 10:40:26;;;;;;;11.02;6.07;;;26.90;36.20;;;;;;5079967;28;20557;-78
2021/10/24 10:42:54;;;;;;;9.50;5.87;;;26.10;37.10;;;;;;5105901;28;20400;-75
2021/10/24 10:45:24;;;;;;;9.50;5.95;;;25.40;38.50;;;;;;5087714;28;20513;-71
2021/10/24 10:47:56;;;;;;;9.67;6.00;;;24.90;40.00;;;;;;5101790;28;20415;-72
2021/10/24 10:50:27;;;;;;;8.48;5.88;;;24.50;41.50;;;;;;5086034;28;20412;-74
2021/10/24 10:53:01;;;;;;;12.18;6.82;;;24.20;41.90;;;;;;5090105;28;20423;-74
2021/10/24 10:55:47;;;;;;;9.40;6.68;;;24.00;42.80;;;;;;5095810;28;20411;-75
2021/10/24 10:58:31;;;;;;;10.43;6.32;;;23.80;43.20;;;;;;5086369;28;20522;-73
2021/10/24 11:00:57;;;;;;;9.50;5.90;;;23.60;44.00;;;;;;5090923;28;20430;-75
2021/10/24 11:03:46;;;;;;;9.60;5.97;;;23.60;44.00;;;;;;5093564;28;20401;-75
2021/10/24 11:06:36;;;;;;;9.85;6.13;;;23.50;44.40;;;;;;5086117;28;20410;-73
2021/10/24 11:09:09;;;;;;;11.40;5.97;;;23.50;44.70;;;;;;5070171;28;20425;-72
2021/10/24 11:11:55;;;;;;;9.27;5.95;;;23.60;44.80;;;;;;5098894;28;20920;-75
2021/10/24 11:14:33;;;;;;;10.23;5.70;;;23.80;43.90;;;;;;5069818;28;20405;-75
2021/10/24 11:17:00;;;;;;;8.68;5.78;;;24.10;42.90;;;;;;5087005;28;20413;-76
2021/10/24 11:19:29;;;;;;;9.77;5.50;;;24.40;42.20;;;;;;5087914;28;20417;-73
2021/10/24 11:22:01;;;;;;;10.43;5.85;;;24.80;41.90;;;;;;5089593;28;20757;-72
2021/10/24 11:24:36;;;;;;;8.45;5.43;;;25.20;41.50;;;;;;5087465;28;20410;-73
2021/10/24 11:27:04;;;;;;;7.97;5.13;;;25.70;40.60;;;;;;5069804;28;20487;-74
2021/10/24 11:29:30;;;;;;;10.73;5.40;;;26.30;39.60;;;;;;5086744;28;20857;-76
2021/10/24 11:32:34;;;;;;;11.80;5.32;;;26.80;38.50;;;;;;5088042;28;20878;-73
2021/10/24 11:35:14;;;;;;;9.10;5.20;;;27.20;38.10;;;;;;5084120;28;20409;-74
2021/10/24 11:37:47;;;;;;;8.70;5.13;;;27.40;37.80;;;;;;5086749;28;21021;-73
2021/10/24 11:40:18;;;;;;;8.57;5.50;;;27.70;37.60;;;;;;5068701;28;20493;-73
2021/10/24 11:43:14;;;;;;;7.45;5.07;;;28.00;36.40;;;;;;5087869;28;21123;-73
2021/10/24 11:45:57;;;;;;;9.35;5.07;;;28.20;36.00;;;;;;5084714;28;20481;-75
2021/10/24 11:48:24;;;;;;;8.18;4.90;;;28.40;35.30;;;;;;5094739;28;20483;-74
2021/10/24 11:50:52;;;;;;;7.00;4.80;;;28.40;35.50;;;;;;5091699;28;20436;-75
2021/10/24 11:53:21;;;;;;;6.07;4.60;;;28.60;34.40;;;;;;5070894;28;20417;-72
2021/10/24 11:55:54;;;;;;;8.55;5.20;;;28.50;34.70;;;;;;5067676;28;20412;-75
2021/10/24 11:58:44;;;;;;;9.55;5.53;;;28.40;35.30;;;;;;5093720;28;20762;-71
2021/10/24 12:01:15;;;;;;;8.57;5.07;;;28.40;35.20;;;;;;5092014;28;20441;-75
2021/10/24 12:03:42;;;;;;;8.77;5.15;;;28.60;34.50;;;;;;5093793;28;20772;-75
2021/10/24 12:06:10;;;;;;;7.72;5.22;;;28.60;34.50;;;;;;5072786;28;20402;-74
2021/10/24 12:08:46;;;;;;;8.73;5.00;;;28.50;34.40;;;;;;5084793;28;20404;-74
2021/10/24 12:11:31;;;;;;;9.85;5.40;;;28.50;35.20;;;;;;5073132;28;20505;-74
2021/10/24 12:14:01;;;;;;;7.45;5.10;;;28.70;35.00;;;;;;5071858;28;20447;-75
2021/10/24 12:16:36;;;;;;;8.90;5.40;;;29.00;34.40;;;;;;5095652;28;20409;-77
2021/10/24 12:19:32;;;;;;;7.72;5.20;;;29.20;34.10;;;;;;5076159;28;20517;-76
2021/10/24 12:22:04;;;;;;;8.30;5.22;;;29.60;33.80;;;;;;5092874;28;20416;-76
2021/10/24 12:24:43;;;;;;;8.25;5.05;;;30.00;32.90;;;;;;5077564;28;20400;-74
2021/10/24 12:27:17;;;;;;;7.35;5.18;;;30.30;32.70;;;;;;5067410;28;20462;-74
2021/10/24 12:30:01;;;;;;;8.73;5.18;;;30.50;32.40;;;;;;5087377;28;20551;-72
2021/10/24 12:32:27;;;;;;;8.25;5.20;;;30.70;32.40;;;;;;5070703;28;20400;-73
2021/10/24 12:34:59;;;;;;;8.07;4.97;;;30.70;31.80;;;;;;5086845;28;20500;-71
2021/10/24 12:37:25;;;;;;;9.23;5.33;;;30.50;31.20;;;;;;5068781;28;20433;-73
2021/10/24 12:40:14;;;;;;;7.13;5.15;;;30.50;31.90;;;;;;5085974;28;20420;-76
2021/10/24 12:42:42;;;;;;;7.53;5.00;;;30.70;31.60;;;;;;5094647;28;20533;-77
2021/10/24 12:45:14;;;;;;;6.80;4.93;;;31.00;31.20;;;;;;5084128;28;20496;-76
2021/10/24 12:47:56;;;;;;;6.78;4.72;;;31.00;30.60;;;;;;5086117;28;20411;-75
2021/10/24 12:50:32;;;;;;;8.65;5.22;;;30.70;30.80;;;;;;5085129;28;20887;-77
2021/10/24 12:53:03;;;;;;;8.40;5.13;;;30.60;31.70;;;;;;5065168;28;20508;-77
2021/10/24 12:55:29;;;;;;;6.45;4.65;;;30.60;31.50;;;;;;5083429;28;20413;-73
2021/10/24 12:57:55;;;;;;;8.43;4.80;;;30.60;31.90;;;;;;5087266;28;20409;-74
2021/10/24 13:00:20;;;;;;;6.63;4.88;;;30.60;32.20;;;;;;5086984;28;20487;-73
2021/10/24 13:02:46;;;;;;;7.95;5.07;;;29.70;34.20;;;;;;5088389;28;20189;-73
2021/10/24 13:05:12;;;;;;;;;;;29.10;35.60;;;;;;5088145;28;20028;-76
2021/10/24 13:07:39;;;;;;;8.73;5.23;;;28.40;36.40;;;;;;5095103;28;20433;-75
2021/10/24 13:10:05;;;;;;;7.13;4.75;;;29.40;34.10;;;;;;5075246;28;20220;-76
2021/10/24 13:12:31;;;;;;;7.93;4.82;;;28.70;35.20;;;;;;5101853;28;20248;-75
2021/10/24 13:14:56;;;;;;;8.27;5.07;;;28.30;36.30;;;;;;5079266;28;20220;-78